Terminal Aerodrome Forecast
Issued by NWS

Home | Current Version | Previous Version | Text Only | Print | Product List | Glossary On
Versions: 1 2 3 4 5 6 7 8 9 10 11 12 13 14 15 16 17 18 19
000
FTUS41 KRNK 211140
TAFBCB
TAF
KBCB 211140Z 2112/2212 VRB03KT P6SM OVC025
      TEMPO 2112/2113 4SM BR
     FM211400 21005KT P6SM BKN030
     FM211800 22008G16KT P6SM BKN035
     FM212200 21007KT P6SM SCT030
     FM220900 00000KT P6SM BKN015=

USA.gov is the U.S. government's official web portal to all federal, state and local government web resources and services.